sensor_id;sensor_type;location;lat;lon;timestamp;pressure;altitude;pressure_sealevel;temperature;humidity
78845;BME280;68195;50.854;2.860;2023-06-22T00:01:21;101794.34;;;19.07;91.64
78845;BME280;68195;50.854;2.860;2023-06-22T00:03:47;101800.34;;;19.09;91.66
78845;BME280;68195;50.854;2.860;2023-06-22T00:06:13;101755.06;;;18.88;90.86
78845;BME280;68195;50.854;2.860;2023-06-22T00:08:38;101787.34;;;19.06;90.67
78845;BME280;68195;50.854;2.860;2023-06-22T00:11:04;101769.31;;;18.98;90.68
78845;BME280;68195;50.854;2.860;2023-06-22T00:13:31;101734.41;;;18.80;89.99
78845;BME280;68195;50.854;2.860;2023-06-22T00:15:57;101784.59;;;19.08;90.66
78845;BME280;68195;50.854;2.860;2023-06-22T00:18:22;101767.13;;;18.92;91.01
78845;BME280;68195;50.854;2.860;2023-06-22T00:20:54;101750.19;;;18.82;91.70
78845;BME280;68195;50.854;2.860;2023-06-22T00:23:23;101784.59;;;18.95;92.66
78845;BME280;68195;50.854;2.860;2023-06-22T00:25:49;101701.41;;;18.33;92.83
78845;BME280;68195;50.854;2.860;2023-06-22T00:28:17;101705.63;;;18.23;93.72
78845;BME280;68195;50.854;2.860;2023-06-22T00:30:45;101655.09;;;17.88;94.68
78845;BME280;68195;50.854;2.860;2023-06-22T00:33:13;101731.97;;;18.24;94.62
78845;BME280;68195;50.854;2.860;2023-06-22T00:35:41;101769.78;;;18.52;94.29
78845;BME280;68195;50.854;2.860;2023-06-22T00:38:07;101767.88;;;18.41;97.04
78845;BME280;68195;50.854;2.860;2023-06-22T00:40:35;101726.63;;;18.12;97.27
78845;BME280;68195;50.854;2.860;2023-06-22T00:43:00;101782.59;;;18.45;95.92
78845;BME280;68195;50.854;2.860;2023-06-22T00:45:28;101782.16;;;18.39;97.91
78845;BME280;68195;50.854;2.860;2023-06-22T00:47:56;101777.16;;;18.34;97.19
78845;BME280;68195;50.854;2.860;2023-06-22T00:50:26;101668.19;;;17.62;98.54
78845;BME280;68195;50.854;2.860;2023-06-22T00:52:55;101729.34;;;17.97;98.86
78845;BME280;68195;50.854;2.860;2023-06-22T00:55:22;101776.16;;;18.22;98.42
78845;BME280;68195;50.854;2.860;2023-06-22T00:57:48;101721.47;;;17.83;99.70
78845;BME280;68195;50.854;2.860;2023-06-22T01:00:15;101744.09;;;17.87;99.71
78845;BME280;68195;50.854;2.860;2023-06-22T01:02:45;101780.06;;;17.90;100.00
78845;BME280;68195;50.854;2.860;2023-06-22T01:05:18;101755.06;;;17.67;100.00
78845;BME280;68195;50.854;2.860;2023-06-22T01:16:29;101761.31;;;17.66;100.00
78845;BME280;68195;50.854;2.860;2023-06-22T01:18:57;101732.69;;;17.45;100.00
78845;BME280;68195;50.854;2.860;2023-06-22T01:21:24;101722.22;;;17.29;100.00
78845;BME280;68195;50.854;2.860;2023-06-22T01:29:40;101772.09;;;17.62;100.00
78845;BME280;68195;50.854;2.860;2023-06-22T01:32:06;101738.22;;;17.55;100.00
78845;BME280;68195;50.854;2.860;2023-06-22T01:34:36;101760.53;;;17.78;100.00
78845;BME280;68195;50.854;2.860;2023-06-22T01:37:06;101755.25;;;17.78;100.00
78845;BME280;68195;50.854;2.860;2023-06-22T01:39:32;101736.19;;;17.73;100.00
78845;BME280;68195;50.854;2.860;2023-06-22T01:41:59;101751.28;;;17.85;100.00
78845;BME280;68195;50.854;2.860;2023-06-22T01:44:25;101729.81;;;17.62;100.00
78845;BME280;68195;50.854;2.860;2023-06-22T01:46:53;101777.41;;;17.90;100.00
78845;BME280;68195;50.854;2.860;2023-06-22T01:49:20;101758.38;;;17.70;100.00
78845;BME280;68195;50.854;2.860;2023-06-22T01:51:45;101767.56;;;17.50;100.00
78845;BME280;68195;50.854;2.860;2023-06-22T01:54:11;101774.16;;;17.57;100.00
78845;BME280;68195;50.854;2.860;2023-06-22T01:56:36;101750.22;;;17.46;100.00
78845;BME280;68195;50.854;2.860;2023-06-22T01:59:20;101788.72;;;17.77;100.00
78845;BME280;68195;50.854;2.860;2023-06-22T02:01:57;101783.34;;;17.79;100.00
78845;BME280;68195;50.854;2.860;2023-06-22T02:04:48;101781.56;;;17.79;100.00
78845;BME280;68195;50.854;2.860;2023-06-22T02:07:18;101756.91;;;17.52;100.00
78845;BME280;68195;50.854;2.860;2023-06-22T02:09:46;101770.28;;;17.49;100.00
78845;BME280;68195;50.854;2.860;2023-06-22T02:12:18;101750.34;;;17.30;100.00
78845;BME280;68195;50.854;2.860;2023-06-22T02:14:49;101752.69;;;17.20;100.00
78845;BME280;68195;50.854;2.860;2023-06-22T02:17:17;101719.03;;;16.95;100.00
78845;BME280;68195;50.854;2.860;2023-06-22T02:19:45;101720.34;;;16.88;100.00
78845;BME280;68195;50.854;2.860;2023-06-22T02:22:13;101763.81;;;17.11;100.00
78845;BME280;68195;50.854;2.860;2023-06-22T02:24:38;101734.19;;;16.92;100.00
78845;BME280;68195;50.854;2.860;2023-06-22T02:27:04;101750.97;;;17.05;100.00
78845;BME280;68195;50.854;2.860;2023-06-22T02:29:34;101735.53;;;16.99;100.00
78845;BME280;68195;50.854;2.860;2023-06-22T02:31:59;101712.34;;;16.90;100.00
78845;BME280;68195;50.854;2.860;2023-06-22T02:34:27;101679.47;;;16.81;100.00
78845;BME280;68195;50.854;2.860;2023-06-22T02:36:55;101732.69;;;17.16;100.00
78845;BME280;68195;50.854;2.860;2023-06-22T02:39:24;101733.44;;;17.18;100.00
78845;BME280;68195;50.854;2.860;2023-06-22T02:41:50;101756.91;;;17.23;100.00
78845;BME280;68195;50.854;2.860;2023-06-22T02:44:16;101754.19;;;17.10;100.00
78845;BME280;68195;50.854;2.860;2023-06-22T02:46:42;101721.78;;;16.94;100.00
78845;BME280;68195;50.854;2.860;2023-06-22T02:49:07;101701.69;;;16.91;100.00
78845;BME280;68195;50.854;2.860;2023-06-22T02:51:38;101740.53;;;17.18;100.00
78845;BME280;68195;50.854;2.860;2023-06-22T02:54:05;101701.03;;;17.02;100.00
78845;BME280;68195;50.854;2.860;2023-06-22T02:56:30;101704.06;;;16.96;100.00
78845;BME280;68195;50.854;2.860;2023-06-22T02:58:58;101757.75;;;17.38;100.00
78845;BME280;68195;50.854;2.860;2023-06-22T03:01:29;101726.94;;;17.24;100.00
78845;BME280;68195;50.854;2.860;2023-06-22T03:03:58;101737.22;;;17.29;100.00
78845;BME280;68195;50.854;2.860;2023-06-22T03:06:24;101683.88;;;16.95;100.00
78845;BME280;68195;50.854;2.860;2023-06-22T03:08:59;101714.97;;;17.18;100.00
78845;BME280;68195;50.854;2.860;2023-06-22T03:11:27;101743.72;;;17.37;100.00
78845;BME280;68195;50.854;2.860;2023-06-22T03:13:52;101697.53;;;17.01;100.00
78845;BME280;68195;50.854;2.860;2023-06-22T03:16:18;101700.06;;;16.89;100.00
78845;BME280;68195;50.854;2.860;2023-06-22T03:18:44;101686.66;;;16.77;100.00
78845;BME280;68195;50.854;2.860;2023-06-22T03:21:10;101694.84;;;16.73;100.00
78845;BME280;68195;50.854;2.860;2023-06-22T03:23:35;101671.75;;;16.48;100.00
78845;BME280;68195;50.854;2.860;2023-06-22T03:26:01;101661.97;;;16.35;100.00
78845;BME280;68195;50.854;2.860;2023-06-22T03:28:29;101682.69;;;16.56;100.00
78845;BME280;68195;50.854;2.860;2023-06-22T03:30:58;101724.03;;;16.86;100.00
78845;BME280;68195;50.854;2.860;2023-06-22T03:33:23;101688.66;;;16.74;100.00
78845;BME280;68195;50.854;2.860;2023-06-22T03:35:49;101700.28;;;16.86;100.00
78845;BME280;68195;50.854;2.860;2023-06-22T03:38:15;101682.88;;;16.67;100.00
78845;BME280;68195;50.854;2.860;2023-06-22T03:40:43;101702.16;;;16.84;100.00
78845;BME280;68195;50.854;2.860;2023-06-22T03:43:11;101679.78;;;16.75;100.00
78845;BME280;68195;50.854;2.860;2023-06-22T03:45:36;101680.38;;;16.80;100.00
78845;BME280;68195;50.854;2.860;2023-06-22T03:48:02;101726.09;;;17.09;100.00
78845;BME280;68195;50.854;2.860;2023-06-22T03:50:30;101689.44;;;16.90;100.00
78845;BME280;68195;50.854;2.860;2023-06-22T03:52:56;101680.47;;;16.78;100.00
78845;BME280;68195;50.854;2.860;2023-06-22T03:55:26;101688.47;;;16.77;100.00
78845;BME280;68195;50.854;2.860;2023-06-22T03:57:54;101724.97;;;16.85;100.00
78845;BME280;68195;50.854;2.860;2023-06-22T04:00:25;101709.56;;;16.77;100.00
78845;BME280;68195;50.854;2.860;2023-06-22T04:02:50;101676.13;;;16.63;100.00
78845;BME280;68195;50.854;2.860;2023-06-22T04:05:16;101663.09;;;16.60;100.00
78845;BME280;68195;50.854;2.860;2023-06-22T04:07:44;101702.06;;;16.85;100.00
78845;BME280;68195;50.854;2.860;2023-06-22T04:10:09;101719.13;;;16.94;100.00
78845;BME280;68195;50.854;2.860;2023-06-22T04:12:35;101688.75;;;16.87;100.00
78845;BME280;68195;50.854;2.860;2023-06-22T04:15:03;101723.47;;;17.09;100.00
78845;BME280;68195;50.854;2.860;2023-06-22T04:17:31;101734.28;;;17.19;100.00
78845;BME280;68195;50.854;2.860;2023-06-22T04:19:59;101734.78;;;17.11;100.00
78845;BME280;68195;50.854;2.860;2023-06-22T04:22:27;101747.00;;;17.12;100.00
78845;BME280;68195;50.854;2.860;2023-06-22T04:24:54;101636.34;;;16.52;100.00
78845;BME280;68195;50.854;2.860;2023-06-22T04:27:22;101690.09;;;16.94;100.00
78845;BME280;68195;50.854;2.860;2023-06-22T04:29:48;101720.44;;;17.01;100.00
78845;BME280;68195;50.854;2.860;2023-06-22T04:32:19;101726.66;;;16.86;100.00
78845;BME280;68195;50.854;2.860;2023-06-22T04:34:46;101710.13;;;16.68;100.00
78845;BME280;68195;50.854;2.860;2023-06-22T04:37:12;101706.81;;;16.64;100.00
78845;BME280;68195;50.854;2.860;2023-06-22T04:39:43;101702.50;;;16.63;100.00
78845;BME280;68195;50.854;2.860;2023-06-22T04:42:09;101691.28;;;16.59;100.00
78845;BME280;68195;50.854;2.860;2023-06-22T04:44:34;101731.84;;;16.87;100.00
78845;BME280;68195;50.854;2.860;2023-06-22T04:47:01;101746.91;;;16.99;100.00
78845;BME280;68195;50.854;2.860;2023-06-22T04:49:29;101744.56;;;17.09;100.00
78845;BME280;68195;50.854;2.860;2023-06-22T04:51:59;101676.78;;;16.67;100.00
78845;BME280;68195;50.854;2.860;2023-06-22T04:54:25;101734.09;;;17.08;100.00
78845;BME280;68195;50.854;2.860;2023-06-22T04:56:51;101721.00;;;17.06;100.00
78845;BME280;68195;50.854;2.860;2023-06-22T04:59:27;101711.00;;;16.97;100.00
78845;BME280;68195;50.854;2.860;2023-06-22T05:01:59;101702.72;;;16.89;100.00
78845;BME280;68195;50.854;2.860;2023-06-22T05:04:25;101677.44;;;16.70;100.00
78845;BME280;68195;50.854;2.860;2023-06-22T05:06:54;101706.03;;;16.92;100.00
78845;BME280;68195;50.854;2.860;2023-06-22T05:09:20;101725.16;;;17.10;98.66
78845;BME280;68195;50.854;2.860;2023-06-22T05:11:48;101686.13;;;16.87;97.03
78845;BME280;68195;50.854;2.860;2023-06-22T05:14:14;101681.59;;;16.89;97.36
78845;BME280;68195;50.854;2.860;2023-06-22T05:16:42;101725.22;;;17.23;95.75
78845;BME280;68195;50.854;2.860;2023-06-22T05:19:13;101693.38;;;17.12;95.08
78845;BME280;68195;50.854;2.860;2023-06-22T05:21:38;101727.78;;;17.39;93.68
78845;BME280;68195;50.854;2.860;2023-06-22T05:24:04;101684.41;;;17.14;92.92
78845;BME280;68195;50.854;2.860;2023-06-22T05:26:33;101720.09;;;17.49;92.76
78845;BME280;68195;50.854;2.860;2023-06-22T05:29:02;101725.00;;;17.55;92.41
78845;BME280;68195;50.854;2.860;2023-06-22T05:31:28;101692.50;;;17.40;91.39
78845;BME280;68195;50.854;2.860;2023-06-22T05:33:54;101726.00;;;17.67;92.63
78845;BME280;68195;50.854;2.860;2023-06-22T05:36:20;101722.44;;;17.68;91.47
78845;BME280;68195;50.854;2.860;2023-06-22T05:38:47;101675.81;;;17.39;90.01
78845;BME280;68195;50.854;2.860;2023-06-22T05:41:13;101684.34;;;17.57;88.11
78845;BME280;68195;50.854;2.860;2023-06-22T05:43:39;101697.91;;;17.66;89.31
78845;BME280;68195;50.854;2.860;2023-06-22T05:46:07;101679.41;;;17.66;91.11
78845;BME280;68195;50.854;2.860;2023-06-22T05:48:35;101661.63;;;17.55;90.27
78845;BME280;68195;50.854;2.860;2023-06-22T05:51:00;101653.16;;;17.50;90.94
78845;BME280;68195;50.854;2.860;2023-06-22T05:53:26;101697.97;;;17.78;91.11
78845;BME280;68195;50.854;2.860;2023-06-22T05:55:51;101661.13;;;17.62;92.07
78845;BME280;68195;50.854;2.860;2023-06-22T05:58:17;101663.56;;;17.66;92.27
78845;BME280;68195;50.854;2.860;2023-06-22T06:00:45;101699.09;;;17.89;92.85
78845;BME280;68195;50.854;2.860;2023-06-22T06:03:15;101685.44;;;17.82;93.97
78845;BME280;68195;50.854;2.860;2023-06-22T06:05:44;101696.97;;;17.94;93.54
78845;BME280;68195;50.854;2.860;2023-06-22T06:08:10;101689.81;;;17.96;93.61
78845;BME280;68195;50.854;2.860;2023-06-22T06:10:38;101683.78;;;17.94;92.54
78845;BME280;68195;50.854;2.860;2023-06-22T06:13:04;101649.88;;;17.73;91.90
78845;BME280;68195;50.854;2.860;2023-06-22T06:15:33;101682.63;;;17.98;92.68
78845;BME280;68195;50.854;2.860;2023-06-22T06:17:58;101685.34;;;17.96;92.57
78845;BME280;68195;50.854;2.860;2023-06-22T06:20:25;101677.13;;;18.01;93.09
78845;BME280;68195;50.854;2.860;2023-06-22T06:22:53;101636.97;;;17.81;93.33
78845;BME280;68195;50.854;2.860;2023-06-22T06:25:23;101653.03;;;17.93;93.73
78845;BME280;68195;50.854;2.860;2023-06-22T06:27:49;101679.69;;;18.15;93.28
78845;BME280;68195;50.854;2.860;2023-06-22T06:30:16;101666.16;;;18.20;92.15
78845;BME280;68195;50.854;2.860;2023-06-22T06:32:45;101648.47;;;18.08;93.04
78845;BME280;68195;50.854;2.860;2023-06-22T06:35:14;101651.78;;;18.11;93.15
78845;BME280;68195;50.854;2.860;2023-06-22T06:37:45;101675.19;;;18.30;92.42
78845;BME280;68195;50.854;2.860;2023-06-22T06:40:14;101672.31;;;18.33;91.86
78845;BME280;68195;50.854;2.860;2023-06-22T06:42:44;101629.69;;;18.12;91.42
78845;BME280;68195;50.854;2.860;2023-06-22T06:45:19;101669.06;;;18.42;91.58
78845;BME280;68195;50.854;2.860;2023-06-22T06:47:46;101654.13;;;18.41;90.47
78845;BME280;68195;50.854;2.860;2023-06-22T06:50:13;101636.91;;;18.36;90.18
78845;BME280;68195;50.854;2.860;2023-06-22T06:52:39;101668.94;;;18.57;89.83
78845;BME280;68195;50.854;2.860;2023-06-22T06:55:05;101664.50;;;18.57;89.75
78845;BME280;68195;50.854;2.860;2023-06-22T06:57:35;101665.69;;;18.66;89.80
78845;BME280;68195;50.854;2.860;2023-06-22T07:00:02;101620.28;;;18.47;89.96
78845;BME280;68195;50.854;2.860;2023-06-22T07:02:35;101668.53;;;18.76;88.97
78845;BME280;68195;50.854;2.860;2023-06-22T07:05:05;101639.00;;;18.69;89.67
78845;BME280;68195;50.854;2.860;2023-06-22T07:07:31;101652.66;;;18.89;88.99
78845;BME280;68195;50.854;2.860;2023-06-22T07:09:59;101578.59;;;18.50;89.17
78845;BME280;68195;50.854;2.860;2023-06-22T07:12:27;101597.00;;;18.64;89.24
78845;BME280;68195;50.854;2.860;2023-06-22T07:15:02;101603.63;;;18.70;87.65
78845;BME280;68195;50.854;2.860;2023-06-22T07:17:28;101611.16;;;18.89;88.30
78845;BME280;68195;50.854;2.860;2023-06-22T07:19:56;101646.59;;;19.12;87.54
78845;BME280;68195;50.854;2.860;2023-06-22T07:22:22;101616.75;;;18.97;86.83
78845;BME280;68195;50.854;2.860;2023-06-22T07:24:47;101645.91;;;19.21;86.66
78845;BME280;68195;50.854;2.860;2023-06-22T07:27:12;101618.19;;;19.14;87.01
78845;BME280;68195;50.854;2.860;2023-06-22T07:29:43;101638.25;;;19.30;86.49
78845;BME280;68195;50.854;2.860;2023-06-22T07:32:08;101633.06;;;19.28;87.28
78845;BME280;68195;50.854;2.860;2023-06-22T07:34:34;101629.25;;;19.32;88.75
78845;BME280;68195;50.854;2.860;2023-06-22T07:36:59;101604.72;;;19.17;86.09
78845;BME280;68195;50.854;2.860;2023-06-22T07:39:25;101613.19;;;19.22;85.95
78845;BME280;68195;50.854;2.860;2023-06-22T07:41:56;101643.41;;;19.44;85.36
78845;BME280;68195;50.854;2.860;2023-06-22T07:44:24;101591.09;;;19.11;86.90
78845;BME280;68195;50.854;2.860;2023-06-22T07:46:49;101614.66;;;19.26;88.08
78845;BME280;68195;50.854;2.860;2023-06-22T07:49:16;101606.44;;;19.18;87.08
78845;BME280;68195;50.854;2.860;2023-06-22T07:51:43;101521.41;;;18.73;88.33
78845;BME280;68195;50.854;2.860;2023-06-22T07:54:11;101637.16;;;19.45;87.60
78845;BME280;68195;50.854;2.860;2023-06-22T07:56:37;101650.69;;;19.53;86.39
78845;BME280;68195;50.854;2.860;2023-06-22T07:59:04;101624.34;;;19.39;86.78
78845;BME280;68195;50.854;2.860;2023-06-22T08:01:32;101615.56;;;19.38;87.59
78845;BME280;68195;50.854;2.860;2023-06-22T08:04:00;101616.41;;;19.39;87.81
78845;BME280;68195;50.854;2.860;2023-06-22T08:06:25;101542.97;;;18.93;86.64
78845;BME280;68195;50.854;2.860;2023-06-22T08:08:53;101609.91;;;19.43;87.66
78845;BME280;68195;50.854;2.860;2023-06-22T08:11:22;101592.56;;;19.39;88.34
78845;BME280;68195;50.854;2.860;2023-06-22T08:13:49;101591.38;;;19.43;89.34
78845;BME280;68195;50.854;2.860;2023-06-22T08:16:15;101628.06;;;19.60;88.03
78845;BME280;68195;50.854;2.860;2023-06-22T08:18:43;101637.78;;;19.73;88.36
78845;BME280;68195;50.854;2.860;2023-06-22T08:21:08;101598.19;;;19.58;89.44
78845;BME280;68195;50.854;2.860;2023-06-22T08:23:34;101616.81;;;19.70;89.33
78845;BME280;68195;50.854;2.860;2023-06-22T08:26:00;101612.44;;;19.68;89.10
78845;BME280;68195;50.854;2.860;2023-06-22T08:28:27;101608.22;;;19.66;87.94
78845;BME280;68195;50.854;2.860;2023-06-22T08:30:53;101620.19;;;19.72;88.04
78845;BME280;68195;50.854;2.860;2023-06-22T08:33:20;101646.03;;;19.81;88.16
78845;BME280;68195;50.854;2.860;2023-06-22T08:35:51;101635.44;;;19.81;89.29
78845;BME280;68195;50.854;2.860;2023-06-22T08:38:19;101557.38;;;19.37;88.60
78845;BME280;68195;50.854;2.860;2023-06-22T08:40:44;101640.88;;;19.91;88.95
78845;BME280;68195;50.854;2.860;2023-06-22T08:43:10;101614.69;;;19.75;88.04
78845;BME280;68195;50.854;2.860;2023-06-22T08:45:35;101600.91;;;19.70;88.05
78845;BME280;68195;50.854;2.860;2023-06-22T08:48:00;101621.19;;;19.82;87.53
78845;BME280;68195;50.854;2.860;2023-06-22T08:50:26;101631.59;;;19.85;87.36
78845;BME280;68195;50.854;2.860;2023-06-22T08:52:51;101613.50;;;19.79;88.22
78845;BME280;68195;50.854;2.860;2023-06-22T08:55:17;101611.56;;;19.81;89.85
78845;BME280;68195;50.854;2.860;2023-06-22T08:57:45;101570.22;;;19.54;89.39
78845;BME280;68195;50.854;2.860;2023-06-22T09:00:11;101649.09;;;19.99;90.03
78845;BME280;68195;50.854;2.860;2023-06-22T09:02:44;101627.72;;;19.89;90.63
78845;BME280;68195;50.854;2.860;2023-06-22T09:05:12;101611.06;;;19.76;91.25
78845;BME280;68195;50.854;2.860;2023-06-22T09:07:40;101591.50;;;19.65;90.45
78845;BME280;68195;50.854;2.860;2023-06-22T09:10:06;101572.41;;;19.60;89.99
78845;BME280;68195;50.854;2.860;2023-06-22T09:12:34;101620.97;;;19.85;90.82
78845;BME280;68195;50.854;2.860;2023-06-22T09:15:02;101643.44;;;20.03;90.37
78845;BME280;68195;50.854;2.860;2023-06-22T09:17:31;101603.63;;;19.81;90.79
78845;BME280;68195;50.854;2.860;2023-06-22T09:19:58;101633.81;;;20.02;91.36
78845;BME280;68195;50.854;2.860;2023-06-22T09:22:27;101617.91;;;20.02;90.35
78845;BME280;68195;50.854;2.860;2023-06-22T09:24:57;101622.00;;;20.06;89.53
78845;BME280;68195;50.854;2.860;2023-06-22T09:27:25;101649.75;;;20.25;90.05
78845;BME280;68195;50.854;2.860;2023-06-22T09:29:51;101542.91;;;19.65;89.71
78845;BME280;68195;50.854;2.860;2023-06-22T09:32:16;101560.81;;;19.74;88.33
78845;BME280;68195;50.854;2.860;2023-06-22T09:34:44;101617.66;;;20.17;89.82
78845;BME280;68195;50.854;2.860;2023-06-22T09:37:12;101590.66;;;20.00;88.54
78845;BME280;68195;50.854;2.860;2023-06-22T09:39:40;101629.00;;;20.19;88.35
78845;BME280;68195;50.854;2.860;2023-06-22T09:42:05;101631.44;;;20.22;88.76
78845;BME280;68195;50.854;2.860;2023-06-22T09:44:31;101648.84;;;20.37;87.08
78845;BME280;68195;50.854;2.860;2023-06-22T09:46:57;101634.56;;;20.27;87.04
78845;BME280;68195;50.854;2.860;2023-06-22T09:49:22;101647.63;;;20.41;87.25
78845;BME280;68195;50.854;2.860;2023-06-22T09:51:48;101637.59;;;20.34;86.37
78845;BME280;68195;50.854;2.860;2023-06-22T09:54:14;101617.72;;;20.28;86.30
78845;BME280;68195;50.854;2.860;2023-06-22T09:56:45;101609.25;;;20.23;86.26
78845;BME280;68195;50.854;2.860;2023-06-22T09:59:12;101621.31;;;20.27;86.86
78845;BME280;68195;50.854;2.860;2023-06-22T10:01:38;101636.16;;;20.41;86.58
78845;BME280;68195;50.854;2.860;2023-06-22T10:04:03;101622.88;;;20.29;85.45
78845;BME280;68195;50.854;2.860;2023-06-22T10:06:31;101637.50;;;20.35;86.91
78845;BME280;68195;50.854;2.860;2023-06-22T10:08:56;101616.25;;;20.24;85.88
78845;BME280;68195;50.854;2.860;2023-06-22T10:11:24;101639.44;;;20.44;87.10
78845;BME280;68195;50.854;2.860;2023-06-22T10:13:54;101597.69;;;20.24;87.53
78845;BME280;68195;50.854;2.860;2023-06-22T10:16:20;101661.19;;;20.61;88.30
78845;BME280;68195;50.854;2.860;2023-06-22T10:18:45;101617.59;;;20.41;90.37
78845;BME280;68195;50.854;2.860;2023-06-22T10:21:10;101653.47;;;20.58;90.51
78845;BME280;68195;50.854;2.860;2023-06-22T10:23:38;101626.28;;;20.43;89.50
78845;BME280;68195;50.854;2.860;2023-06-22T10:26:04;101623.50;;;20.44;89.77
78845;BME280;68195;50.854;2.860;2023-06-22T10:28:32;101641.34;;;20.54;90.78
78845;BME280;68195;50.854;2.860;2023-06-22T10:30:59;101623.28;;;20.47;90.32
78845;BME280;68195;50.854;2.860;2023-06-22T10:33:25;101589.13;;;20.32;92.07
78845;BME280;68195;50.854;2.860;2023-06-22T10:35:50;101519.66;;;19.93;92.17
78845;BME280;68195;50.854;2.860;2023-06-22T10:38:15;101554.75;;;20.19;92.79
78845;BME280;68195;50.854;2.860;2023-06-22T10:40:41;101625.72;;;20.62;92.05
78845;BME280;68195;50.854;2.860;2023-06-22T10:43:06;101609.22;;;20.58;92.87
78845;BME280;68195;50.854;2.860;2023-06-22T10:45:36;101557.53;;;20.17;93.05
78845;BME280;68195;50.854;2.860;2023-06-22T10:48:02;101627.28;;;20.64;93.35
78845;BME280;68195;50.854;2.860;2023-06-22T10:50:30;101569.25;;;20.26;93.33
78845;BME280;68195;50.854;2.860;2023-06-22T10:52:57;101544.97;;;20.19;93.60
78845;BME280;68195;50.854;2.860;2023-06-22T10:55:25;101596.75;;;20.47;94.28
78845;BME280;68195;50.854;2.860;2023-06-22T10:57:53;101596.97;;;20.44;94.15
78845;BME280;68195;50.854;2.860;2023-06-22T11:00:23;101618.81;;;20.48;95.14
78845;BME280;68195;50.854;2.860;2023-06-22T11:02:53;101607.59;;;20.44;96.10
78845;BME280;68195;50.854;2.860;2023-06-22T11:05:19;101579.97;;;20.24;96.36
78845;BME280;68195;50.854;2.860;2023-06-22T11:07:47;101622.41;;;20.47;97.18
78845;BME280;68195;50.854;2.860;2023-06-22T11:10:14;101621.59;;;20.46;97.16
78845;BME280;68195;50.854;2.860;2023-06-22T11:12:44;101587.91;;;20.24;97.64
78845;BME280;68195;50.854;2.860;2023-06-22T11:15:09;101604.09;;;20.33;96.56
78845;BME280;68195;50.854;2.860;2023-06-22T11:17:37;101535.75;;;19.78;97.21
78845;BME280;68195;50.854;2.860;2023-06-22T11:20:05;101603.84;;;20.24;98.23
78845;BME280;68195;50.854;2.860;2023-06-22T11:22:40;101576.44;;;20.13;97.83
78845;BME280;68195;50.854;2.860;2023-06-22T11:25:06;101622.53;;;20.34;98.02
78845;BME280;68195;50.854;2.860;2023-06-22T11:27:32;101563.28;;;20.00;97.91
78845;BME280;68195;50.854;2.860;2023-06-22T11:29:57;101620.84;;;20.33;97.81
78845;BME280;68195;50.854;2.860;2023-06-22T11:32:28;101596.34;;;20.18;98.42
78845;BME280;68195;50.854;2.860;2023-06-22T11:34:56;101613.25;;;20.28;98.42
78845;BME280;68195;50.854;2.860;2023-06-22T11:37:24;101553.28;;;19.92;98.69
78845;BME280;68195;50.854;2.860;2023-06-22T11:39:54;101573.56;;;20.04;99.43
78845;BME280;68195;50.854;2.860;2023-06-22T11:42:23;101589.47;;;20.04;99.23
78845;BME280;68195;50.854;2.860;2023-06-22T11:44:50;101601.53;;;20.20;99.76
78845;BME280;68195;50.854;2.860;2023-06-22T11:47:18;101576.69;;;20.10;99.75
78845;BME280;68195;50.854;2.860;2023-06-22T11:49:44;101599.09;;;20.17;99.49
78845;BME280;68195;50.854;2.860;2023-06-22T11:52:09;101602.50;;;20.19;99.82
78845;BME280;68195;50.854;2.860;2023-06-22T11:54:34;101609.50;;;20.20;100.00
78845;BME280;68195;50.854;2.860;2023-06-22T11:57:02;101602.13;;;20.12;99.85
78845;BME280;68195;50.854;2.860;2023-06-22T11:59:30;101574.13;;;19.97;100.00
78845;BME280;68195;50.854;2.860;2023-06-22T12:01:57;101567.47;;;19.91;99.90
78845;BME280;68195;50.854;2.860;2023-06-22T12:04:23;101579.06;;;19.90;98.61
78845;BME280;68195;50.854;2.860;2023-06-22T12:06:53;101532.66;;;19.60;99.14
78845;BME280;68195;50.854;2.860;2023-06-22T12:09:20;101605.59;;;20.13;99.17
78845;BME280;68195;50.854;2.860;2023-06-22T12:11:46;101601.13;;;20.02;99.44
78845;BME280;68195;50.854;2.860;2023-06-22T12:14:11;101610.53;;;20.06;99.53
78845;BME280;68195;50.854;2.860;2023-06-22T12:16:37;101599.56;;;19.99;99.85
78845;BME280;68195;50.854;2.860;2023-06-22T12:19:03;101625.88;;;20.14;100.00
78845;BME280;68195;50.854;2.860;2023-06-22T12:21:28;101599.81;;;20.07;100.00
78845;BME280;68195;50.854;2.860;2023-06-22T12:23:54;101599.81;;;20.07;99.95
78845;BME280;68195;50.854;2.860;2023-06-22T12:26:19;101586.66;;;20.06;98.89
78845;BME280;68195;50.854;2.860;2023-06-22T12:28:47;101564.00;;;19.91;98.21
78845;BME280;68195;50.854;2.860;2023-06-22T12:31:12;101595.72;;;20.03;97.76
78845;BME280;68195;50.854;2.860;2023-06-22T12:33:38;101573.28;;;19.85;97.35
78845;BME280;68195;50.854;2.860;2023-06-22T12:36:03;101597.91;;;20.10;96.95
78845;BME280;68195;50.854;2.860;2023-06-22T12:38:30;101534.59;;;19.58;96.94
78845;BME280;68195;50.854;2.860;2023-06-22T12:40:55;101588.84;;;20.01;96.89
78845;BME280;68195;50.854;2.860;2023-06-22T12:43:20;101619.72;;;20.13;96.64
78845;BME280;68195;50.854;2.860;2023-06-22T12:45:46;101575.19;;;19.83;96.79
78845;BME280;68195;50.854;2.860;2023-06-22T12:48:14;101618.53;;;20.17;96.27
78845;BME280;68195;50.854;2.860;2023-06-22T12:50:39;101537.91;;;19.73;96.84
78845;BME280;68195;50.854;2.860;2023-06-22T12:53:05;101574.22;;;19.95;96.98
78845;BME280;68195;50.854;2.860;2023-06-22T12:55:31;101605.66;;;20.24;94.81
78845;BME280;68195;50.854;2.860;2023-06-22T12:57:57;101585.59;;;20.08;94.50
78845;BME280;68195;50.854;2.860;2023-06-22T13:00:27;101544.59;;;19.90;95.21
78845;BME280;68195;50.854;2.860;2023-06-22T13:02:55;101591.66;;;20.22;96.07